sensor_id;sensor_type;location;lat;lon;timestamp;temperature;humidity
52073;DHT22;38074;51.232;6.826;2023-02-01T00:01:32;24.40;40.60
52073;DHT22;38074;51.232;6.826;2023-02-01T00:08:48;24.40;40.50
52073;DHT22;38074;51.232;6.826;2023-02-01T00:16:09;24.30;40.40
52073;DHT22;38074;51.232;6.826;2023-02-01T00:23:25;24.30;40.40
52073;DHT22;38074;51.232;6.826;2023-02-01T00:30:40;24.30;40.30
52073;DHT22;38074;51.232;6.826;2023-02-01T00:37:56;24.30;40.30
52073;DHT22;38074;51.232;6.826;2023-02-01T00:45:14;24.20;40.20
52073;DHT22;38074;51.232;6.826;2023-02-01T00:52:30;24.20;40.10
52073;DHT22;38074;51.232;6.826;2023-02-01T00:59:45;24.20;40.10
52073;DHT22;38074;51.232;6.826;2023-02-01T01:07:01;24.20;40.00
52073;DHT22;38074;51.232;6.826;2023-02-01T01:14:16;24.10;39.90
52073;DHT22;38074;51.232;6.826;2023-02-01T01:21:32;24.10;39.90
52073;DHT22;38074;51.232;6.826;2023-02-01T01:28:48;24.10;39.80
52073;DHT22;38074;51.232;6.826;2023-02-01T01:36:07;24.10;39.80
52073;DHT22;38074;51.232;6.826;2023-02-01T01:43:50;24.10;39.70
52073;DHT22;38074;51.232;6.826;2023-02-01T01:51:08;24.10;39.50
52073;DHT22;38074;51.232;6.826;2023-02-01T01:58:27;24.00;39.60
52073;DHT22;38074;51.232;6.826;2023-02-01T02:05:44;24.00;39.50
52073;DHT22;38074;51.232;6.826;2023-02-01T02:13:00;24.00;39.50
52073;DHT22;38074;51.232;6.826;2023-02-01T02:35:54;23.90;39.10
52073;DHT22;38074;51.232;6.826;2023-02-01T02:43:22;23.90;39.10
52073;DHT22;38074;51.232;6.826;2023-02-01T02:51:14;23.90;39.00
52073;DHT22;38074;51.232;6.826;2023-02-01T02:58:50;23.90;39.00
52073;DHT22;38074;51.232;6.826;2023-02-01T03:06:25;23.90;39.10
52073;DHT22;38074;51.232;6.826;2023-02-01T03:13:53;23.90;39.00
52073;DHT22;38074;51.232;6.826;2023-02-01T03:21:13;23.80;38.90
52073;DHT22;38074;51.232;6.826;2023-02-01T03:28:32;23.80;38.90
52073;DHT22;38074;51.232;6.826;2023-02-01T03:43:37;23.80;38.70
52073;DHT22;38074;51.232;6.826;2023-02-01T03:50:58;23.80;38.70
52073;DHT22;38074;51.232;6.826;2023-02-01T03:58:21;23.80;38.70
52073;DHT22;38074;51.232;6.826;2023-02-01T04:05:37;23.80;38.70
52073;DHT22;38074;51.232;6.826;2023-02-01T04:12:52;23.80;38.60
52073;DHT22;38074;51.232;6.826;2023-02-01T04:20:08;23.80;38.60
52073;DHT22;38074;51.232;6.826;2023-02-01T04:27:24;23.80;38.60
52073;DHT22;38074;51.232;6.826;2023-02-01T04:34:39;23.80;38.60
52073;DHT22;38074;51.232;6.826;2023-02-01T04:41:55;23.80;38.50
52073;DHT22;38074;51.232;6.826;2023-02-01T04:49:11;23.70;38.40
52073;DHT22;38074;51.232;6.826;2023-02-01T04:56:27;23.70;38.40
52073;DHT22;38074;51.232;6.826;2023-02-01T05:03:43;23.70;38.30
52073;DHT22;38074;51.232;6.826;2023-02-01T05:10:58;23.70;39.00
52073;DHT22;38074;51.232;6.826;2023-02-01T05:18:14;23.70;38.30
52073;DHT22;38074;51.232;6.826;2023-02-01T05:25:29;23.70;38.90
52073;DHT22;38074;51.232;6.826;2023-02-01T05:32:52;23.70;38.20
52073;DHT22;38074;51.232;6.826;2023-02-01T05:40:08;23.70;38.20
52073;DHT22;38074;51.232;6.826;2023-02-01T05:47:24;23.70;38.10
52073;DHT22;38074;51.232;6.826;2023-02-01T05:54:40;23.70;38.10
52073;DHT22;38074;51.232;6.826;2023-02-01T06:01:55;23.70;38.10
52073;DHT22;38074;51.232;6.826;2023-02-01T06:09:10;23.70;38.10
52073;DHT22;38074;51.232;6.826;2023-02-01T06:16:26;23.70;38.00
52073;DHT22;38074;51.232;6.826;2023-02-01T06:23:42;23.70;38.00
52073;DHT22;38074;51.232;6.826;2023-02-01T06:31:06;23.60;38.00
52073;DHT22;38074;51.232;6.826;2023-02-01T06:38:22;23.70;38.10
52073;DHT22;38074;51.232;6.826;2023-02-01T06:45:37;23.70;38.00
52073;DHT22;38074;51.232;6.826;2023-02-01T06:52:53;23.70;38.00
52073;DHT22;38074;51.232;6.826;2023-02-01T07:00:10;23.70;38.10
52073;DHT22;38074;51.232;6.826;2023-02-01T07:07:26;23.80;38.40
52073;DHT22;38074;51.232;6.826;2023-02-01T07:14:41;23.80;38.50
52073;DHT22;38074;51.232;6.826;2023-02-01T07:21:57;23.90;38.60
52073;DHT22;38074;51.232;6.826;2023-02-01T07:29:12;23.90;38.70
52073;DHT22;38074;51.232;6.826;2023-02-01T07:36:28;24.00;38.80
52073;DHT22;38074;51.232;6.826;2023-02-01T07:43:44;23.90;38.80
52073;DHT22;38074;51.232;6.826;2023-02-01T07:51:04;23.90;38.80
52073;DHT22;38074;51.232;6.826;2023-02-01T07:58:20;23.90;38.90
52073;DHT22;38074;51.232;6.826;2023-02-01T08:05:36;23.80;38.90
52073;DHT22;38074;51.232;6.826;2023-02-01T08:12:52;23.80;38.90
52073;DHT22;38074;51.232;6.826;2023-02-01T08:20:12;23.80;38.90
52073;DHT22;38074;51.232;6.826;2023-02-01T08:27:28;23.80;39.10
52073;DHT22;38074;51.232;6.826;2023-02-01T08:34:44;23.80;39.10
52073;DHT22;38074;51.232;6.826;2023-02-01T08:41:59;23.90;39.20
52073;DHT22;38074;51.232;6.826;2023-02-01T08:49:33;23.90;39.20
52073;DHT22;38074;51.232;6.826;2023-02-01T08:56:49;23.90;39.20
52073;DHT22;38074;51.232;6.826;2023-02-01T09:04:04;23.90;39.00
52073;DHT22;38074;51.232;6.826;2023-02-01T09:11:20;23.90;39.00
52073;DHT22;38074;51.232;6.826;2023-02-01T09:18:35;23.90;39.00
52073;DHT22;38074;51.232;6.826;2023-02-01T09:25:52;23.90;39.00
52073;DHT22;38074;51.232;6.826;2023-02-01T09:33:07;23.90;39.00
52073;DHT22;38074;51.232;6.826;2023-02-01T09:40:23;23.90;39.60
52073;DHT22;38074;51.232;6.826;2023-02-01T09:47:43;23.90;39.00
52073;DHT22;38074;51.232;6.826;2023-02-01T09:55:09;24.00;39.00
52073;DHT22;38074;51.232;6.826;2023-02-01T10:02:28;24.00;39.00
52073;DHT22;38074;51.232;6.826;2023-02-01T10:10:02;24.00;39.00
52073;DHT22;38074;51.232;6.826;2023-02-01T10:17:39;24.00;39.00
52073;DHT22;38074;51.232;6.826;2023-02-01T10:32:34;24.00;39.00
52073;DHT22;38074;51.232;6.826;2023-02-01T10:39:53;24.00;39.00
52073;DHT22;38074;51.232;6.826;2023-02-01T10:47:10;24.20;41.00
52073;DHT22;38074;51.232;6.826;2023-02-01T10:54:34;25.20;40.40
52073;DHT22;38074;51.232;6.826;2023-02-01T11:02:00;25.80;37.90
52073;DHT22;38074;51.232;6.826;2023-02-01T11:09:22;25.90;36.40
52073;DHT22;38074;51.232;6.826;2023-02-01T11:16:40;27.00;37.30
52073;DHT22;38074;51.232;6.826;2023-02-01T11:24:01;27.30;38.40
52073;DHT22;38074;51.232;6.826;2023-02-01T11:31:17;27.70;34.20
52073;DHT22;38074;51.232;6.826;2023-02-01T11:38:34;26.80;34.50
52073;DHT22;38074;51.232;6.826;2023-02-01T11:46:01;26.10;34.70
52073;DHT22;38074;51.232;6.826;2023-02-01T12:08:27;25.20;35.60
52073;DHT22;38074;51.232;6.826;2023-02-01T12:23:37;24.90;36.00
52073;DHT22;38074;51.232;6.826;2023-02-01T12:38:52;24.60;36.20
52073;DHT22;38074;51.232;6.826;2023-02-01T12:46:48;24.50;36.20
52073;DHT22;38074;51.232;6.826;2023-02-01T13:01:40;24.30;36.20
52073;DHT22;38074;51.232;6.826;2023-02-01T13:16:43;24.20;36.20
52073;DHT22;38074;51.232;6.826;2023-02-01T13:23:59;24.20;36.30
52073;DHT22;38074;51.232;6.826;2023-02-01T13:46:45;24.10;36.40
52073;DHT22;38074;51.232;6.826;2023-02-01T13:54:02;24.00;36.40
52073;DHT22;38074;51.232;6.826;2023-02-01T14:08:40;24.00;36.40
52073;DHT22;38074;51.232;6.826;2023-02-01T14:23:20;23.90;36.30
52073;DHT22;38074;51.232;6.826;2023-02-01T14:30:36;23.90;37.00
52073;DHT22;38074;51.232;6.826;2023-02-01T14:37:58;23.90;36.30
52073;DHT22;38074;51.232;6.826;2023-02-01T14:52:41;23.90;36.30
52073;DHT22;38074;51.232;6.826;2023-02-01T15:00:17;23.90;36.30
52073;DHT22;38074;51.232;6.826;2023-02-01T15:07:33;23.80;36.30
52073;DHT22;38074;51.232;6.826;2023-02-01T15:22:29;23.80;36.20
52073;DHT22;38074;51.232;6.826;2023-02-01T15:29:44;23.80;36.30
52073;DHT22;38074;51.232;6.826;2023-02-01T15:37:04;23.80;36.30
52073;DHT22;38074;51.232;6.826;2023-02-01T15:44:41;23.80;36.30
52073;DHT22;38074;51.232;6.826;2023-02-01T15:52:00;23.80;36.50
52073;DHT22;38074;51.232;6.826;2023-02-01T15:59:17;23.80;36.40
52073;DHT22;38074;51.232;6.826;2023-02-01T16:06:34;23.80;36.40
52073;DHT22;38074;51.232;6.826;2023-02-01T16:13:49;23.80;36.40
52073;DHT22;38074;51.232;6.826;2023-02-01T16:21:05;23.70;36.40
52073;DHT22;38074;51.232;6.826;2023-02-01T16:28:20;23.70;36.40
52073;DHT22;38074;51.232;6.826;2023-02-01T16:35:37;23.70;36.40
52073;DHT22;38074;51.232;6.826;2023-02-01T16:42:53;23.70;36.40
52073;DHT22;38074;51.232;6.826;2023-02-01T16:50:14;23.70;36.40
52073;DHT22;38074;51.232;6.826;2023-02-01T16:57:30;23.70;36.30
52073;DHT22;38074;51.232;6.826;2023-02-01T17:04:46;23.70;36.40
52073;DHT22;38074;51.232;6.826;2023-02-01T17:12:04;23.60;36.40
52073;DHT22;38074;51.232;6.826;2023-02-01T17:19:21;23.70;36.50
52073;DHT22;38074;51.232;6.826;2023-02-01T17:26:40;23.70;36.50
52073;DHT22;38074;51.232;6.826;2023-02-01T17:33:56;23.60;36.50
52073;DHT22;38074;51.232;6.826;2023-02-01T17:41:13;23.60;36.50
52073;DHT22;38074;51.232;6.826;2023-02-01T17:48:29;23.60;36.50
52073;DHT22;38074;51.232;6.826;2023-02-01T17:55:45;23.60;36.50
52073;DHT22;38074;51.232;6.826;2023-02-01T18:03:00;23.60;36.50
52073;DHT22;38074;51.232;6.826;2023-02-01T18:10:16;23.60;36.50
52073;DHT22;38074;51.232;6.826;2023-02-01T18:17:32;23.70;36.60
52073;DHT22;38074;51.232;6.826;2023-02-01T18:24:47;23.60;36.50
52073;DHT22;38074;51.232;6.826;2023-02-01T18:32:03;23.60;36.80
52073;DHT22;38074;51.232;6.826;2023-02-01T18:39:19;23.70;36.90
52073;DHT22;38074;51.232;6.826;2023-02-01T18:46:34;23.80;37.10
52073;DHT22;38074;51.232;6.826;2023-02-01T18:53:50;23.80;37.10
52073;DHT22;38074;51.232;6.826;2023-02-01T19:01:08;23.80;37.10
52073;DHT22;38074;51.232;6.826;2023-02-01T19:08:24;23.80;37.10
52073;DHT22;38074;51.232;6.826;2023-02-01T19:15:40;23.80;37.20
52073;DHT22;38074;51.232;6.826;2023-02-01T19:22:56;23.80;37.20
52073;DHT22;38074;51.232;6.826;2023-02-01T19:30:12;23.80;37.20
52073;DHT22;38074;51.232;6.826;2023-02-01T19:37:28;23.80;37.20
52073;DHT22;38074;51.232;6.826;2023-02-01T19:44:44;23.80;37.20
52073;DHT22;38074;51.232;6.826;2023-02-01T19:52:00;23.80;37.20
52073;DHT22;38074;51.232;6.826;2023-02-01T19:59:16;23.80;37.30
52073;DHT22;38074;51.232;6.826;2023-02-01T20:06:37;23.80;37.30
52073;DHT22;38074;51.232;6.826;2023-02-01T20:13:54;23.80;37.20
52073;DHT22;38074;51.232;6.826;2023-02-01T20:21:10;23.80;37.30
52073;DHT22;38074;51.232;6.826;2023-02-01T20:28:25;23.80;37.30
52073;DHT22;38074;51.232;6.826;2023-02-01T20:35:44;23.70;37.20
52073;DHT22;38074;51.232;6.826;2023-02-01T20:43:00;23.70;37.10
52073;DHT22;38074;51.232;6.826;2023-02-01T20:50:17;23.70;37.20
52073;DHT22;38074;51.232;6.826;2023-02-01T20:57:33;23.60;37.10
52073;DHT22;38074;51.232;6.826;2023-02-01T21:04:48;23.60;37.20
52073;DHT22;38074;51.232;6.826;2023-02-01T21:12:04;23.60;37.10
52073;DHT22;38074;51.232;6.826;2023-02-01T21:19:19;23.60;37.10
52073;DHT22;38074;51.232;6.826;2023-02-01T21:26:36;23.60;37.10
52073;DHT22;38074;51.232;6.826;2023-02-01T21:33:55;23.60;37.10
52073;DHT22;38074;51.232;6.826;2023-02-01T21:41:10;23.60;37.20
52073;DHT22;38074;51.232;6.826;2023-02-01T21:48:45;23.60;37.20
52073;DHT22;38074;51.232;6.826;2023-02-01T21:56:00;23.60;37.20
52073;DHT22;38074;51.232;6.826;2023-02-01T22:03:16;23.60;37.20
52073;DHT22;38074;51.232;6.826;2023-02-01T22:10:31;23.60;37.20
52073;DHT22;38074;51.232;6.826;2023-02-01T22:17:47;23.60;37.30
52073;DHT22;38074;51.232;6.826;2023-02-01T22:25:02;23.60;37.20
52073;DHT22;38074;51.232;6.826;2023-02-01T22:32:19;23.60;37.30
52073;DHT22;38074;51.232;6.826;2023-02-01T22:39:34;23.60;37.40
52073;DHT22;38074;51.232;6.826;2023-02-01T22:46:50;23.60;37.40
52073;DHT22;38074;51.232;6.826;2023-02-01T22:54:06;23.60;37.40
52073;DHT22;38074;51.232;6.826;2023-02-01T23:01:23;23.60;37.40
52073;DHT22;38074;51.232;6.826;2023-02-01T23:08:38;23.60;37.40
52073;DHT22;38074;51.232;6.826;2023-02-01T23:15:54;23.50;37.40
52073;DHT22;38074;51.232;6.826;2023-02-01T23:23:10;23.50;37.40
52073;DHT22;38074;51.232;6.826;2023-02-01T23:30:25;23.50;37.40
52073;DHT22;38074;51.232;6.826;2023-02-01T23:37:42;23.50;37.40
52073;DHT22;38074;51.232;6.826;2023-02-01T23:44:57;23.50;37.40
52073;DHT22;38074;51.232;6.826;2023-02-01T23:52:13;23.50;37.50
52073;DHT22;38074;51.232;6.826;2023-02-01T23:59:28;23.50;37.40
